Alexandria, IN

8:26 PM EDT on August 31, 2015 (GMT -0400)
St Rd 232/200E, Near Mounds State Park | | Change Station
CLOSE
Current Station
Personal Weather Station
Location: Anderson, IN
Elevation: 911 ft
Nearby Weather Stations

Elev 911 ft 40.19 °N, 85.69 °W | Updated 12 seconds ago

Mostly Cloudy
Mostly Cloudy
79.0 °F
Feels Like 81 °F
N
2.0
Wind Variable Wind from WNW
Gusts 4.0 mph

Today
High -- | Low -- °F
--% Chance of Precip.
Yesterday
High -- | Low -- °F
Precip. -- in
7:08 AM 8:16 PM
Waning Gibbous, 93% visible
Pressure 30.04 in
Visibility 10.0 miles
Clouds Mostly Cloudy 4900 ft
Overcast 6500 ft
Heat Index 81 °F
Dew Point 68 °F
Humidity 69%
Rainfall in
Snow Depth Not available.
UV 0.0 out of 12
Pollen 10.80 out of 12
Air Quality Not available.
Flu Activity Not available.
METAR KMIE 312353Z 32010KT 10SM BKN049 OVC065 24/17 A3006 RMK AO2 TSE52 SLP172 T02440172 10294 20244 53002
Pressure 30.04 in
Visibility 10.0 miles
Clouds Mostly Cloudy 4900 ft
Overcast 6500 ft
Heat Index 81 °F
Dew Point 68 °F
Humidity 69%
Rainfall in
Snow Depth Not available.
UV 0.0 out of 12
Pollen 10.80 out of 12
Air Quality Not available.
Flu Activity Not available.
METAR KMIE 312353Z 32010KT 10SM BKN049 OVC065 24/17 A3006 RMK AO2 TSE52 SLP172 T02440172 10294 20244 53002

10-Day Weather Forecast

×

Almanac

Astronomy

Aug. 31, 2015 Rise Set
Actual Time
Civil Twilight
Nautical Twilight
Astronomical Twilight
Moon
Length of Visible Light
Length of Day
Tomorrow will be .
, % of the Moon is Illuminated

Today's Extremes

State Highs State Lows

Community

WunderPhotos

Upload Photos

1,851,405 photos uploaded!

WunderBlogs® & News

Nearby

Air Quality

  Air Quality AQ Index Pollutant
Not available.

Snow Depth

Station Depth Elevation

Earthquake Activity

City Distance Mag. Time & Date
Minimum magnitude displayed is 2.5.

Coastal Water Temperatures

Place Temperature

Stations

Nearby Weather Stations

Station Location Temp. Windchill Dew Point Humidity Wind Precip. Elev Updated Type